sensor_id;sensor_type;location;lat;lon;timestamp;temperature;humidity
25248;DHT22;13191;47.472;11.214;2022-12-10T00:01:44;1.60;99.90
25248;DHT22;13191;47.472;11.214;2022-12-10T00:04:11;1.50;99.90
25248;DHT22;13191;47.472;11.214;2022-12-10T00:06:38;1.60;99.90
25248;DHT22;13191;47.472;11.214;2022-12-10T00:09:06;1.50;99.90
25248;DHT22;13191;47.472;11.214;2022-12-10T00:11:33;1.60;99.90
25248;DHT22;13191;47.472;11.214;2022-12-10T00:13:58;1.60;99.90
25248;DHT22;13191;47.472;11.214;2022-12-10T00:16:26;1.70;99.90
25248;DHT22;13191;47.472;11.214;2022-12-10T00:18:53;1.70;99.90
25248;DHT22;13191;47.472;11.214;2022-12-10T00:21:21;1.70;99.90
25248;DHT22;13191;47.472;11.214;2022-12-10T00:23:47;1.70;99.90
25248;DHT22;13191;47.472;11.214;2022-12-10T00:26:16;1.70;99.90
25248;DHT22;13191;47.472;11.214;2022-12-10T00:28:42;1.80;99.90
25248;DHT22;13191;47.472;11.214;2022-12-10T00:31:20;1.80;99.90
25248;DHT22;13191;47.472;11.214;2022-12-10T00:33:46;1.80;99.90
25248;DHT22;13191;47.472;11.214;2022-12-10T00:36:28;1.80;99.90
25248;DHT22;13191;47.472;11.214;2022-12-10T00:38:53;1.90;99.90
25248;DHT22;13191;47.472;11.214;2022-12-10T00:41:19;1.90;99.90
25248;DHT22;13191;47.472;11.214;2022-12-10T00:43:45;1.90;99.90
25248;DHT22;13191;47.472;11.214;2022-12-10T00:46:12;1.90;99.90
25248;DHT22;13191;47.472;11.214;2022-12-10T00:48:38;1.90;99.90
25248;DHT22;13191;47.472;11.214;2022-12-10T00:51:07;2.00;99.90
25248;DHT22;13191;47.472;11.214;2022-12-10T00:53:34;2.00;99.90
25248;DHT22;13191;47.472;11.214;2022-12-10T00:56:00;2.00;99.90
25248;DHT22;13191;47.472;11.214;2022-12-10T00:58:28;1.90;99.90
25248;DHT22;13191;47.472;11.214;2022-12-10T01:00:54;1.90;99.90
25248;DHT22;13191;47.472;11.214;2022-12-10T01:03:20;1.80;99.90
25248;DHT22;13191;47.472;11.214;2022-12-10T01:05:45;1.80;99.90
25248;DHT22;13191;47.472;11.214;2022-12-10T01:08:11;1.70;99.90
25248;DHT22;13191;47.472;11.214;2022-12-10T01:10:40;1.80;99.90
25248;DHT22;13191;47.472;11.214;2022-12-10T01:13:05;1.80;99.90
25248;DHT22;13191;47.472;11.214;2022-12-10T01:15:31;1.80;99.90
25248;DHT22;13191;47.472;11.214;2022-12-10T01:18:01;1.80;99.90
25248;DHT22;13191;47.472;11.214;2022-12-10T01:20:27;1.90;99.90
25248;DHT22;13191;47.472;11.214;2022-12-10T01:22:52;1.90;99.90
25248;DHT22;13191;47.472;11.214;2022-12-10T01:25:18;1.90;99.90
25248;DHT22;13191;47.472;11.214;2022-12-10T01:27:44;1.90;99.90
25248;DHT22;13191;47.472;11.214;2022-12-10T01:30:10;1.90;99.90
25248;DHT22;13191;47.472;11.214;2022-12-10T01:32:35;1.90;99.90
25248;DHT22;13191;47.472;11.214;2022-12-10T01:35:01;1.90;99.90
25248;DHT22;13191;47.472;11.214;2022-12-10T01:37:26;1.80;99.90
25248;DHT22;13191;47.472;11.214;2022-12-10T01:39:52;1.80;99.90
25248;DHT22;13191;47.472;11.214;2022-12-10T01:42:18;1.80;99.90
25248;DHT22;13191;47.472;11.214;2022-12-10T01:47:09;1.70;99.90
25248;DHT22;13191;47.472;11.214;2022-12-10T01:49:37;1.70;99.90
25248;DHT22;13191;47.472;11.214;2022-12-10T01:52:06;1.70;99.90
25248;DHT22;13191;47.472;11.214;2022-12-10T01:54:38;1.70;99.90
25248;DHT22;13191;47.472;11.214;2022-12-10T01:57:05;1.80;99.90
25248;DHT22;13191;47.472;11.214;2022-12-10T01:59:32;1.80;99.90
25248;DHT22;13191;47.472;11.214;2022-12-10T02:02:17;1.80;99.90
25248;DHT22;13191;47.472;11.214;2022-12-10T02:05:04;1.90;99.90
25248;DHT22;13191;47.472;11.214;2022-12-10T02:16:03;2.00;99.90
25248;DHT22;13191;47.472;11.214;2022-12-10T02:18:32;2.10;99.90
25248;DHT22;13191;47.472;11.214;2022-12-10T02:21:03;2.10;99.90
25248;DHT22;13191;47.472;11.214;2022-12-10T02:23:54;2.00;99.90
25248;DHT22;13191;47.472;11.214;2022-12-10T02:26:55;2.00;99.90
25248;DHT22;13191;47.472;11.214;2022-12-10T02:29:18;2.00;99.90
25248;DHT22;13191;47.472;11.214;2022-12-10T02:32:06;2.00;99.90
25248;DHT22;13191;47.472;11.214;2022-12-10T02:34:40;2.00;99.90
25248;DHT22;13191;47.472;11.214;2022-12-10T02:37:12;2.00;99.90
25248;DHT22;13191;47.472;11.214;2022-12-10T02:39:44;2.00;99.90
25248;DHT22;13191;47.472;11.214;2022-12-10T02:42:15;2.00;99.90
25248;DHT22;13191;47.472;11.214;2022-12-10T02:44:42;1.90;99.90
25248;DHT22;13191;47.472;11.214;2022-12-10T02:47:10;1.90;99.90
25248;DHT22;13191;47.472;11.214;2022-12-10T02:49:37;1.90;99.90
25248;DHT22;13191;47.472;11.214;2022-12-10T02:52:11;2.00;99.90
25248;DHT22;13191;47.472;11.214;2022-12-10T02:54:41;2.00;99.90
25248;DHT22;13191;47.472;11.214;2022-12-10T03:00:05;2.00;99.90
25248;DHT22;13191;47.472;11.214;2022-12-10T03:07:47;2.00;99.90
25248;DHT22;13191;47.472;11.214;2022-12-10T03:10:26;2.00;99.90
25248;DHT22;13191;47.472;11.214;2022-12-10T03:12:58;2.00;99.90
25248;DHT22;13191;47.472;11.214;2022-12-10T03:15:27;2.00;99.90
25248;DHT22;13191;47.472;11.214;2022-12-10T03:17:54;2.00;99.90
25248;DHT22;13191;47.472;11.214;2022-12-10T03:20:22;2.00;99.90
25248;DHT22;13191;47.472;11.214;2022-12-10T03:22:49;2.00;99.90
25248;DHT22;13191;47.472;11.214;2022-12-10T03:25:23;2.00;99.90
25248;DHT22;13191;47.472;11.214;2022-12-10T03:27:51;2.00;99.90
25248;DHT22;13191;47.472;11.214;2022-12-10T03:30:19;2.00;99.90
25248;DHT22;13191;47.472;11.214;2022-12-10T03:32:45;2.00;99.90
25248;DHT22;13191;47.472;11.214;2022-12-10T03:35:11;2.00;99.90
25248;DHT22;13191;47.472;11.214;2022-12-10T03:37:38;2.00;99.90
25248;DHT22;13191;47.472;11.214;2022-12-10T03:40:05;2.00;99.90
25248;DHT22;13191;47.472;11.214;2022-12-10T03:42:32;2.00;99.90
25248;DHT22;13191;47.472;11.214;2022-12-10T03:44:57;2.00;99.90
25248;DHT22;13191;47.472;11.214;2022-12-10T03:47:23;2.00;99.90
25248;DHT22;13191;47.472;11.214;2022-12-10T03:49:49;2.00;99.90
25248;DHT22;13191;47.472;11.214;2022-12-10T03:52:15;1.90;99.90
25248;DHT22;13191;47.472;11.214;2022-12-10T03:54:41;1.90;99.90
25248;DHT22;13191;47.472;11.214;2022-12-10T03:57:06;1.90;99.90
25248;DHT22;13191;47.472;11.214;2022-12-10T03:59:32;1.90;99.90
25248;DHT22;13191;47.472;11.214;2022-12-10T04:01:58;1.90;99.90
25248;DHT22;13191;47.472;11.214;2022-12-10T04:04:24;1.90;99.90
25248;DHT22;13191;47.472;11.214;2022-12-10T04:06:49;1.90;99.90
25248;DHT22;13191;47.472;11.214;2022-12-10T04:09:15;1.90;99.90
25248;DHT22;13191;47.472;11.214;2022-12-10T04:11:41;2.00;99.90
25248;DHT22;13191;47.472;11.214;2022-12-10T04:14:09;2.00;99.90
25248;DHT22;13191;47.472;11.214;2022-12-10T04:16:53;2.00;99.90
25248;DHT22;13191;47.472;11.214;2022-12-10T04:19:19;2.00;99.90
25248;DHT22;13191;47.472;11.214;2022-12-10T04:21:46;2.00;99.90
25248;DHT22;13191;47.472;11.214;2022-12-10T04:24:32;2.00;99.90
25248;DHT22;13191;47.472;11.214;2022-12-10T04:27:35;2.00;99.90
25248;DHT22;13191;47.472;11.214;2022-12-10T04:30:02;2.00;99.90
25248;DHT22;13191;47.472;11.214;2022-12-10T04:32:29;2.00;99.90
25248;DHT22;13191;47.472;11.214;2022-12-10T04:34:55;2.00;99.90
25248;DHT22;13191;47.472;11.214;2022-12-10T04:37:21;2.00;99.90
25248;DHT22;13191;47.472;11.214;2022-12-10T04:39:49;2.00;99.90
25248;DHT22;13191;47.472;11.214;2022-12-10T04:42:15;2.00;99.90
25248;DHT22;13191;47.472;11.214;2022-12-10T04:44:41;2.00;99.90
25248;DHT22;13191;47.472;11.214;2022-12-10T04:47:08;2.00;99.90
25248;DHT22;13191;47.472;11.214;2022-12-10T04:49:34;2.00;99.90
25248;DHT22;13191;47.472;11.214;2022-12-10T04:52:00;1.90;99.90
25248;DHT22;13191;47.472;11.214;2022-12-10T04:54:26;2.00;99.90
25248;DHT22;13191;47.472;11.214;2022-12-10T04:56:52;2.00;99.90
25248;DHT22;13191;47.472;11.214;2022-12-10T04:59:18;2.00;99.90
25248;DHT22;13191;47.472;11.214;2022-12-10T05:01:44;2.00;99.90
25248;DHT22;13191;47.472;11.214;2022-12-10T05:04:11;2.00;99.90
25248;DHT22;13191;47.472;11.214;2022-12-10T05:06:38;2.00;99.90
25248;DHT22;13191;47.472;11.214;2022-12-10T05:09:04;2.10;99.90
25248;DHT22;13191;47.472;11.214;2022-12-10T05:11:31;2.10;99.90
25248;DHT22;13191;47.472;11.214;2022-12-10T05:13:57;2.10;99.90
25248;DHT22;13191;47.472;11.214;2022-12-10T05:16:26;2.10;99.90
25248;DHT22;13191;47.472;11.214;2022-12-10T05:18:53;2.10;99.90
25248;DHT22;13191;47.472;11.214;2022-12-10T05:21:23;2.10;99.90
25248;DHT22;13191;47.472;11.214;2022-12-10T05:23:50;2.10;99.90
25248;DHT22;13191;47.472;11.214;2022-12-10T05:26:22;2.10;99.90
25248;DHT22;13191;47.472;11.214;2022-12-10T05:28:55;2.10;99.90
25248;DHT22;13191;47.472;11.214;2022-12-10T05:31:26;2.10;99.90
25248;DHT22;13191;47.472;11.214;2022-12-10T05:33:53;2.10;99.90
25248;DHT22;13191;47.472;11.214;2022-12-10T05:36:21;2.10;99.90
25248;DHT22;13191;47.472;11.214;2022-12-10T05:38:47;2.10;99.90
25248;DHT22;13191;47.472;11.214;2022-12-10T05:41:18;2.10;99.90
25248;DHT22;13191;47.472;11.214;2022-12-10T05:43:44;2.20;99.90
25248;DHT22;13191;47.472;11.214;2022-12-10T05:46:13;2.20;99.90
25248;DHT22;13191;47.472;11.214;2022-12-10T05:48:39;2.20;99.90
25248;DHT22;13191;47.472;11.214;2022-12-10T05:51:12;2.20;99.90
25248;DHT22;13191;47.472;11.214;2022-12-10T05:53:38;2.20;99.90
25248;DHT22;13191;47.472;11.214;2022-12-10T05:56:13;2.20;99.90
25248;DHT22;13191;47.472;11.214;2022-12-10T05:58:41;2.20;99.90
25248;DHT22;13191;47.472;11.214;2022-12-10T06:01:13;2.10;99.90
25248;DHT22;13191;47.472;11.214;2022-12-10T06:03:40;2.10;99.90
25248;DHT22;13191;47.472;11.214;2022-12-10T06:06:06;2.10;99.90
25248;DHT22;13191;47.472;11.214;2022-12-10T06:08:33;2.10;99.90
25248;DHT22;13191;47.472;11.214;2022-12-10T06:11:08;2.10;99.90
25248;DHT22;13191;47.472;11.214;2022-12-10T06:13:34;2.10;99.90
25248;DHT22;13191;47.472;11.214;2022-12-10T06:15:59;2.10;99.90
25248;DHT22;13191;47.472;11.214;2022-12-10T06:18:28;2.10;99.90
25248;DHT22;13191;47.472;11.214;2022-12-10T06:20:54;2.10;99.90
25248;DHT22;13191;47.472;11.214;2022-12-10T06:23:19;2.10;99.90
25248;DHT22;13191;47.472;11.214;2022-12-10T06:25:45;2.20;99.90
25248;DHT22;13191;47.472;11.214;2022-12-10T06:28:10;2.20;99.90
25248;DHT22;13191;47.472;11.214;2022-12-10T06:30:36;2.20;99.90
25248;DHT22;13191;47.472;11.214;2022-12-10T06:33:02;2.20;99.90
25248;DHT22;13191;47.472;11.214;2022-12-10T06:35:27;2.20;99.90
25248;DHT22;13191;47.472;11.214;2022-12-10T06:37:53;2.20;99.90
25248;DHT22;13191;47.472;11.214;2022-12-10T06:40:18;2.20;99.90
25248;DHT22;13191;47.472;11.214;2022-12-10T06:42:44;2.20;99.90
25248;DHT22;13191;47.472;11.214;2022-12-10T06:45:10;2.20;99.90
25248;DHT22;13191;47.472;11.214;2022-12-10T06:47:36;2.20;99.90
25248;DHT22;13191;47.472;11.214;2022-12-10T06:50:02;2.20;99.90
25248;DHT22;13191;47.472;11.214;2022-12-10T06:52:27;2.10;99.90
25248;DHT22;13191;47.472;11.214;2022-12-10T06:54:53;2.10;99.90
25248;DHT22;13191;47.472;11.214;2022-12-10T06:57:20;2.00;99.90
25248;DHT22;13191;47.472;11.214;2022-12-10T06:59:46;2.00;99.90
25248;DHT22;13191;47.472;11.214;2022-12-10T07:02:12;2.00;99.90
25248;DHT22;13191;47.472;11.214;2022-12-10T07:04:38;2.00;99.90
25248;DHT22;13191;47.472;11.214;2022-12-10T07:07:05;2.00;99.90
25248;DHT22;13191;47.472;11.214;2022-12-10T07:09:31;2.00;99.90
25248;DHT22;13191;47.472;11.214;2022-12-10T07:11:57;2.00;99.90
25248;DHT22;13191;47.472;11.214;2022-12-10T07:14:23;2.00;99.90
25248;DHT22;13191;47.472;11.214;2022-12-10T07:16:48;1.90;99.90
25248;DHT22;13191;47.472;11.214;2022-12-10T07:19:14;1.90;99.90
25248;DHT22;13191;47.472;11.214;2022-12-10T07:21:41;1.90;99.90
25248;DHT22;13191;47.472;11.214;2022-12-10T07:24:11;1.90;99.90
25248;DHT22;13191;47.472;11.214;2022-12-10T07:26:39;1.90;99.90
25248;DHT22;13191;47.472;11.214;2022-12-10T07:29:06;1.90;99.90
25248;DHT22;13191;47.472;11.214;2022-12-10T07:31:33;1.90;99.90
25248;DHT22;13191;47.472;11.214;2022-12-10T07:33:59;1.90;99.90
25248;DHT22;13191;47.472;11.214;2022-12-10T07:36:26;1.90;99.90
25248;DHT22;13191;47.472;11.214;2022-12-10T07:38:53;1.80;99.90
25248;DHT22;13191;47.472;11.214;2022-12-10T07:41:20;1.80;99.90
25248;DHT22;13191;47.472;11.214;2022-12-10T07:43:46;1.80;99.90
25248;DHT22;13191;47.472;11.214;2022-12-10T07:46:14;1.80;99.90
25248;DHT22;13191;47.472;11.214;2022-12-10T07:48:43;1.80;99.90
25248;DHT22;13191;47.472;11.214;2022-12-10T07:51:10;1.80;99.90
25248;DHT22;13191;47.472;11.214;2022-12-10T07:53:35;1.70;99.90
25248;DHT22;13191;47.472;11.214;2022-12-10T07:56:02;1.70;99.90
25248;DHT22;13191;47.472;11.214;2022-12-10T07:58:28;1.70;99.90
25248;DHT22;13191;47.472;11.214;2022-12-10T08:00:54;1.70;99.90
25248;DHT22;13191;47.472;11.214;2022-12-10T08:03:20;1.80;99.90
25248;DHT22;13191;47.472;11.214;2022-12-10T08:05:45;1.80;99.90
25248;DHT22;13191;47.472;11.214;2022-12-10T08:08:11;1.80;99.90
25248;DHT22;13191;47.472;11.214;2022-12-10T08:10:38;1.70;99.90
25248;DHT22;13191;47.472;11.214;2022-12-10T08:13:04;1.70;99.90
25248;DHT22;13191;47.472;11.214;2022-12-10T08:15:31;1.80;99.90
25248;DHT22;13191;47.472;11.214;2022-12-10T08:17:56;1.80;99.90
25248;DHT22;13191;47.472;11.214;2022-12-10T08:20:23;1.80;99.90
25248;DHT22;13191;47.472;11.214;2022-12-10T08:22:49;1.80;99.90
25248;DHT22;13191;47.472;11.214;2022-12-10T08:25:15;1.80;99.90
25248;DHT22;13191;47.472;11.214;2022-12-10T08:27:41;1.80;99.90
25248;DHT22;13191;47.472;11.214;2022-12-10T08:30:08;1.80;99.90
25248;DHT22;13191;47.472;11.214;2022-12-10T08:32:34;1.70;99.90
25248;DHT22;13191;47.472;11.214;2022-12-10T08:34:59;1.70;99.90
25248;DHT22;13191;47.472;11.214;2022-12-10T08:37:25;1.80;99.90
25248;DHT22;13191;47.472;11.214;2022-12-10T08:39:50;1.70;99.90
25248;DHT22;13191;47.472;11.214;2022-12-10T08:42:16;1.70;99.90
25248;DHT22;13191;47.472;11.214;2022-12-10T08:44:42;1.70;99.90
25248;DHT22;13191;47.472;11.214;2022-12-10T08:47:07;1.70;99.90
25248;DHT22;13191;47.472;11.214;2022-12-10T08:49:33;1.70;99.90
25248;DHT22;13191;47.472;11.214;2022-12-10T08:51:59;1.80;99.90
25248;DHT22;13191;47.472;11.214;2022-12-10T08:54:24;1.80;99.90
25248;DHT22;13191;47.472;11.214;2022-12-10T08:56:50;1.90;99.90
25248;DHT22;13191;47.472;11.214;2022-12-10T08:59:16;1.90;99.90
25248;DHT22;13191;47.472;11.214;2022-12-10T09:01:42;2.00;99.90
25248;DHT22;13191;47.472;11.214;2022-12-10T09:04:08;2.00;99.90
25248;DHT22;13191;47.472;11.214;2022-12-10T09:06:34;2.00;99.90
25248;DHT22;13191;47.472;11.214;2022-12-10T09:09:00;2.00;99.90
25248;DHT22;13191;47.472;11.214;2022-12-10T09:11:29;1.90;99.90
25248;DHT22;13191;47.472;11.214;2022-12-10T09:13:55;1.90;99.90
25248;DHT22;13191;47.472;11.214;2022-12-10T09:16:27;1.90;99.90
25248;DHT22;13191;47.472;11.214;2022-12-10T09:18:52;1.90;99.90
25248;DHT22;13191;47.472;11.214;2022-12-10T09:21:19;1.90;99.90
25248;DHT22;13191;47.472;11.214;2022-12-10T09:23:44;1.90;99.90
25248;DHT22;13191;47.472;11.214;2022-12-10T09:26:14;1.90;99.90
25248;DHT22;13191;47.472;11.214;2022-12-10T09:28:41;1.90;99.90
25248;DHT22;13191;47.472;11.214;2022-12-10T09:31:07;2.00;99.90
25248;DHT22;13191;47.472;11.214;2022-12-10T09:33:33;2.00;99.90
25248;DHT22;13191;47.472;11.214;2022-12-10T09:35:59;2.00;99.90
25248;DHT22;13191;47.472;11.214;2022-12-10T09:38:25;2.00;99.90
25248;DHT22;13191;47.472;11.214;2022-12-10T09:41:05;2.00;99.90
25248;DHT22;13191;47.472;11.214;2022-12-10T09:52:03;1.80;99.90
25248;DHT22;13191;47.472;11.214;2022-12-10T09:54:33;1.70;99.90
25248;DHT22;13191;47.472;11.214;2022-12-10T09:57:00;1.60;99.90
25248;DHT22;13191;47.472;11.214;2022-12-10T09:59:48;1.50;99.90
25248;DHT22;13191;47.472;11.214;2022-12-10T10:02:31;1.40;99.90
25248;DHT22;13191;47.472;11.214;2022-12-10T10:07:47;1.30;99.90
25248;DHT22;13191;47.472;11.214;2022-12-10T10:15:48;1.00;99.90
25248;DHT22;13191;47.472;11.214;2022-12-10T10:18:34;0.90;99.90
25248;DHT22;13191;47.472;11.214;2022-12-10T10:21:17;1.00;99.90
25248;DHT22;13191;47.472;11.214;2022-12-10T10:23:45;1.10;99.90
25248;DHT22;13191;47.472;11.214;2022-12-10T10:26:10;1.00;99.90
25248;DHT22;13191;47.472;11.214;2022-12-10T10:28:38;1.00;99.90
25248;DHT22;13191;47.472;11.214;2022-12-10T10:31:16;0.90;99.90
25248;DHT22;13191;47.472;11.214;2022-12-10T10:33:55;0.80;99.90
25248;DHT22;13191;47.472;11.214;2022-12-10T10:36:25;0.80;99.90
25248;DHT22;13191;47.472;11.214;2022-12-10T10:38:52;0.70;99.90
25248;DHT22;13191;47.472;11.214;2022-12-10T10:41:19;0.70;99.90
25248;DHT22;13191;47.472;11.214;2022-12-10T10:43:49;0.70;99.90
25248;DHT22;13191;47.472;11.214;2022-12-10T10:46:22;0.70;99.90
25248;DHT22;13191;47.472;11.214;2022-12-10T10:48:48;0.80;99.90
25248;DHT22;13191;47.472;11.214;2022-12-10T10:53:52;0.80;99.90
25248;DHT22;13191;47.472;11.214;2022-12-10T10:56:19;0.80;99.90
25248;DHT22;13191;47.472;11.214;2022-12-10T10:59:00;0.70;99.90
25248;DHT22;13191;47.472;11.214;2022-12-10T11:01:44;0.70;99.90
25248;DHT22;13191;47.472;11.214;2022-12-10T11:04:10;0.70;99.90
25248;DHT22;13191;47.472;11.214;2022-12-10T11:06:36;0.70;99.90
25248;DHT22;13191;47.472;11.214;2022-12-10T11:09:01;0.70;99.90
25248;DHT22;13191;47.472;11.214;2022-12-10T11:11:36;0.70;99.90
25248;DHT22;13191;47.472;11.214;2022-12-10T11:16:48;0.60;99.90
25248;DHT22;13191;47.472;11.214;2022-12-10T11:19:22;0.60;99.90
25248;DHT22;13191;47.472;11.214;2022-12-10T11:21:48;0.60;99.90
25248;DHT22;13191;47.472;11.214;2022-12-10T11:24:18;0.50;99.90
25248;DHT22;13191;47.472;11.214;2022-12-10T11:26:59;0.50;99.90
25248;DHT22;13191;47.472;11.214;2022-12-10T11:32:43;0.60;99.90
25248;DHT22;13191;47.472;11.214;2022-12-10T11:36:04;0.60;99.90
25248;DHT22;13191;47.472;11.214;2022-12-10T11:42:04;0.50;99.90
25248;DHT22;13191;47.472;11.214;2022-12-10T11:44:40;0.50;99.90
25248;DHT22;13191;47.472;11.214;2022-12-10T11:47:21;0.60;99.90
25248;DHT22;13191;47.472;11.214;2022-12-10T12:00:52;0.60;99.90
25248;DHT22;13191;47.472;11.214;2022-12-10T12:04:00;0.50;99.90
25248;DHT22;13191;47.472;11.214;2022-12-10T12:07:10;0.50;99.90
25248;DHT22;13191;47.472;11.214;2022-12-10T12:15:50;0.40;99.90
25248;DHT22;13191;47.472;11.214;2022-12-10T12:21:11;0.50;99.90
25248;DHT22;13191;47.472;11.214;2022-12-10T12:26:19;0.30;99.90
25248;DHT22;13191;47.472;11.214;2022-12-10T12:28:58;0.40;99.90
25248;DHT22;13191;47.472;11.214;2022-12-10T12:31:34;0.40;99.90
25248;DHT22;13191;47.472;11.214;2022-12-10T12:36:45;0.40;99.90
25248;DHT22;13191;47.472;11.214;2022-12-10T12:42:19;0.30;99.90
25248;DHT22;13191;47.472;11.214;2022-12-10T12:49:52;0.50;99.90
25248;DHT22;13191;47.472;11.214;2022-12-10T12:54:58;0.60;99.90
25248;DHT22;13191;47.472;11.214;2022-12-10T12:58:00;0.60;99.90
25248;DHT22;13191;47.472;11.214;2022-12-10T13:00:29;0.60;99.90
25248;DHT22;13191;47.472;11.214;2022-12-10T13:05:48;0.60;99.90
25248;DHT22;13191;47.472;11.214;2022-12-10T13:11:00;0.40;99.90
25248;DHT22;13191;47.472;11.214;2022-12-10T13:14:28;0.40;99.90
25248;DHT22;13191;47.472;11.214;2022-12-10T13:16:50;0.30;99.90
25248;DHT22;13191;47.472;11.214;2022-12-10T13:19:29;0.30;99.90
25248;DHT22;13191;47.472;11.214;2022-12-10T13:30:27;0.40;99.90
25248;DHT22;13191;47.472;11.214;2022-12-10T13:33:15;0.50;99.90
25248;DHT22;13191;47.472;11.214;2022-12-10T13:35:49;0.40;99.90
25248;DHT22;13191;47.472;11.214;2022-12-10T13:38:21;0.30;99.90
25248;DHT22;13191;47.472;11.214;2022-12-10T13:40:58;0.20;99.90
25248;DHT22;13191;47.472;11.214;2022-12-10T13:43:52;0.20;99.90
25248;DHT22;13191;47.472;11.214;2022-12-10T13:46:58;0.10;99.90
25248;DHT22;13191;47.472;11.214;2022-12-10T13:49:30;0.20;99.90
25248;DHT22;13191;47.472;11.214;2022-12-10T13:52:02;0.20;99.90
25248;DHT22;13191;47.472;11.214;2022-12-10T13:57:19;0.20;99.90
25248;DHT22;13191;47.472;11.214;2022-12-10T14:00:20;0.20;99.90
25248;DHT22;13191;47.472;11.214;2022-12-10T14:08:32;0.30;99.90
25248;DHT22;13191;47.472;11.214;2022-12-10T14:10:59;0.30;99.90
25248;DHT22;13191;47.472;11.214;2022-12-10T14:13:42;0.30;99.90
25248;DHT22;13191;47.472;11.214;2022-12-10T14:16:14;0.30;99.90
25248;DHT22;13191;47.472;11.214;2022-12-10T14:18:43;0.30;99.90
25248;DHT22;13191;47.472;11.214;2022-12-10T14:21:14;0.30;99.90
25248;DHT22;13191;47.472;11.214;2022-12-10T14:23:48;0.40;99.90
25248;DHT22;13191;47.472;11.214;2022-12-10T14:26:17;0.40;99.90
25248;DHT22;13191;47.472;11.214;2022-12-10T14:31:34;0.50;99.90
25248;DHT22;13191;47.472;11.214;2022-12-10T14:34:06;0.50;99.90
25248;DHT22;13191;47.472;11.214;2022-12-10T14:36:38;0.50;99.90
25248;DHT22;13191;47.472;11.214;2022-12-10T14:39:15;0.50;99.90
25248;DHT22;13191;47.472;11.214;2022-12-10T14:41:42;0.50;99.90
25248;DHT22;13191;47.472;11.214;2022-12-10T14:44:12;0.60;99.90
25248;DHT22;13191;47.472;11.214;2022-12-10T14:46:39;0.60;99.90
25248;DHT22;13191;47.472;11.214;2022-12-10T14:49:05;0.60;99.90
25248;DHT22;13191;47.472;11.214;2022-12-10T14:51:36;0.70;99.90
25248;DHT22;13191;47.472;11.214;2022-12-10T14:54:02;0.70;99.90
25248;DHT22;13191;47.472;11.214;2022-12-10T14:56:37;0.70;99.90
25248;DHT22;13191;47.472;11.214;2022-12-10T14:59:14;0.80;99.90
25248;DHT22;13191;47.472;11.214;2022-12-10T15:01:49;0.80;99.90
25248;DHT22;13191;47.472;11.214;2022-12-10T15:04:19;0.80;99.90
25248;DHT22;13191;47.472;11.214;2022-12-10T15:06:45;0.90;99.90
25248;DHT22;13191;47.472;11.214;2022-12-10T15:09:23;1.00;99.90
25248;DHT22;13191;47.472;11.214;2022-12-10T15:11:54;1.00;99.90
25248;DHT22;13191;47.472;11.214;2022-12-10T15:14:21;1.00;99.90
25248;DHT22;13191;47.472;11.214;2022-12-10T15:16:48;1.00;99.90
25248;DHT22;13191;47.472;11.214;2022-12-10T15:19:31;1.00;99.90
25248;DHT22;13191;47.472;11.214;2022-12-10T15:24:41;1.00;99.90
25248;DHT22;13191;47.472;11.214;2022-12-10T15:27:22;1.00;99.90
25248;DHT22;13191;47.472;11.214;2022-12-10T15:29:48;1.10;99.90
25248;DHT22;13191;47.472;11.214;2022-12-10T15:32:19;1.10;99.90
25248;DHT22;13191;47.472;11.214;2022-12-10T15:34:53;1.10;99.90
25248;DHT22;13191;47.472;11.214;2022-12-10T15:37:38;1.10;99.90
25248;DHT22;13191;47.472;11.214;2022-12-10T15:40:19;1.20;99.90
25248;DHT22;13191;47.472;11.214;2022-12-10T15:42:46;1.20;99.90
25248;DHT22;13191;47.472;11.214;2022-12-10T15:45:15;1.20;99.90
25248;DHT22;13191;47.472;11.214;2022-12-10T15:47:42;1.30;99.90
25248;DHT22;13191;47.472;11.214;2022-12-10T15:50:09;1.30;99.90
25248;DHT22;13191;47.472;11.214;2022-12-10T15:52:35;1.30;99.90
25248;DHT22;13191;47.472;11.214;2022-12-10T15:55:01;1.30;99.90
25248;DHT22;13191;47.472;11.214;2022-12-10T15:57:31;1.30;99.90
25248;DHT22;13191;47.472;11.214;2022-12-10T16:00:00;1.30;99.90
25248;DHT22;13191;47.472;11.214;2022-12-10T16:02:34;1.30;99.90
25248;DHT22;13191;47.472;11.214;2022-12-10T16:05:02;1.40;99.90
25248;DHT22;13191;47.472;11.214;2022-12-10T16:07:30;1.40;99.90
25248;DHT22;13191;47.472;11.214;2022-12-10T16:09:57;1.30;99.90
25248;DHT22;13191;47.472;11.214;2022-12-10T16:12:23;1.30;99.90
25248;DHT22;13191;47.472;11.214;2022-12-10T16:14:54;1.30;99.90
25248;DHT22;13191;47.472;11.214;2022-12-10T16:17:26;1.40;99.90
25248;DHT22;13191;47.472;11.214;2022-12-10T16:19:53;1.40;99.90
25248;DHT22;13191;47.472;11.214;2022-12-10T16:22:19;1.50;99.90
25248;DHT22;13191;47.472;11.214;2022-12-10T16:24:45;1.40;99.90
25248;DHT22;13191;47.472;11.214;2022-12-10T16:27:14;1.40;99.90
25248;DHT22;13191;47.472;11.214;2022-12-10T16:29:41;1.30;99.90
25248;DHT22;13191;47.472;11.214;2022-12-10T16:32:11;1.30;99.90
25248;DHT22;13191;47.472;11.214;2022-12-10T16:34:37;1.30;99.90
25248;DHT22;13191;47.472;11.214;2022-12-10T16:37:04;1.30;99.90
25248;DHT22;13191;47.472;11.214;2022-12-10T16:39:30;1.20;99.90
25248;DHT22;13191;47.472;11.214;2022-12-10T16:41:56;1.30;99.90
25248;DHT22;13191;47.472;11.214;2022-12-10T16:44:21;1.30;99.90
25248;DHT22;13191;47.472;11.214;2022-12-10T16:46:47;1.30;99.90
25248;DHT22;13191;47.472;11.214;2022-12-10T16:49:13;1.30;99.90
25248;DHT22;13191;47.472;11.214;2022-12-10T16:51:39;1.30;99.90
25248;DHT22;13191;47.472;11.214;2022-12-10T16:54:05;1.30;99.90
25248;DHT22;13191;47.472;11.214;2022-12-10T16:56:30;1.30;99.90
25248;DHT22;13191;47.472;11.214;2022-12-10T16:58:56;1.40;99.90
25248;DHT22;13191;47.472;11.214;2022-12-10T17:01:27;1.40;99.90
25248;DHT22;13191;47.472;11.214;2022-12-10T17:03:53;1.40;99.90
25248;DHT22;13191;47.472;11.214;2022-12-10T17:06:20;1.40;99.90
25248;DHT22;13191;47.472;11.214;2022-12-10T17:08:46;1.40;99.90
25248;DHT22;13191;47.472;11.214;2022-12-10T17:11:21;1.40;99.90
25248;DHT22;13191;47.472;11.214;2022-12-10T17:14:43;1.40;99.90
25248;DHT22;13191;47.472;11.214;2022-12-10T17:17:13;1.40;99.90
25248;DHT22;13191;47.472;11.214;2022-12-10T17:19:40;1.40;99.90
25248;DHT22;13191;47.472;11.214;2022-12-10T17:22:07;1.30;99.90
25248;DHT22;13191;47.472;11.214;2022-12-10T17:24:33;1.30;99.90
25248;DHT22;13191;47.472;11.214;2022-12-10T17:27:17;1.20;99.90
25248;DHT22;13191;47.472;11.214;2022-12-10T17:29:45;1.20;99.90
25248;DHT22;13191;47.472;11.214;2022-12-10T17:32:18;1.20;99.90
25248;DHT22;13191;47.472;11.214;2022-12-10T17:34:44;1.20;99.90
25248;DHT22;13191;47.472;11.214;2022-12-10T17:37:12;1.30;99.90
25248;DHT22;13191;47.472;11.214;2022-12-10T17:39:38;1.30;99.90